Time;durP1;ratioP1;P1;durP2;ratioP2;P2;SDS_P1;SDS_P2;PMS_P1;PMS_P2;Temp;Humidity;BMP_temperature;BMP_pressure;BME280_temperature;BME280_humidity;BME280_pressure;Samples;Min_cycle;Max_cycle;Signal;HPM_P1;HPM_P2
2023/10/23 00:00:06;;;;;;;2.07;1.80;;;19.40;99.90;;;;;;5046909;28;20242;-89
2023/10/23 00:02:32;;;;;;;2.63;2.00;;;19.40;99.90;;;;;;5059474;28;20203;-88
2023/10/23 00:04:58;;;;;;;2.30;1.90;;;19.40;99.90;;;;;;5057642;28;20207;-90
2023/10/23 00:07:24;;;;;;;2.30;1.97;;;19.40;99.90;;;;;;5041995;28;20169;-89
2023/10/23 00:09:51;;;;;;;2.37;2.00;;;19.40;99.90;;;;;;5063655;28;20171;-88
2023/10/23 00:12:16;;;;;;;3.03;2.20;;;19.40;99.90;;;;;;5042644;28;20277;-89
2023/10/23 00:14:42;;;;;;;2.17;1.87;;;19.40;99.90;;;;;;5052883;28;20219;-89
2023/10/23 00:17:07;;;;;;;2.07;1.83;;;19.40;99.90;;;;;;5060277;28;20179;-89
2023/10/23 00:19:33;;;;;;;3.13;1.90;;;19.30;99.90;;;;;;5056905;28;20233;-89
2023/10/23 00:21:58;;;;;;;2.10;1.70;;;19.30;99.90;;;;;;5048198;28;20173;-89
2023/10/23 00:24:24;;;;;;;2.33;1.70;;;19.30;99.90;;;;;;5036078;28;20356;-89
2023/10/23 00:26:51;;;;;;;2.47;1.80;;;19.30;99.90;;;;;;5055382;28;20192;-89
2023/10/23 00:29:17;;;;;;;1.90;1.80;;;19.30;99.90;;;;;;5052919;28;20203;-89
2023/10/23 00:31:42;;;;;;;1.90;1.70;;;19.30;99.90;;;;;;5036349;28;20593;-89
2023/10/23 00:34:08;;;;;;;1.77;1.67;;;19.30;99.90;;;;;;5035156;28;20255;-89
2023/10/23 00:36:34;;;;;;;2.07;1.83;;;19.30;99.90;;;;;;5046032;28;20204;-89
2023/10/23 00:38:59;;;;;;;2.10;1.90;;;19.30;99.90;;;;;;5034540;28;20234;-89
2023/10/23 00:41:25;;;;;;;3.00;1.83;;;19.30;99.90;;;;;;5038011;28;20161;-89
2023/10/23 00:43:51;;;;;;;2.47;2.00;;;19.30;99.90;;;;;;5054162;28;20512;-89
2023/10/23 00:46:20;;;;;;;2.10;1.80;;;19.30;99.90;;;;;;5043973;28;20179;-89
2023/10/23 00:48:47;;;;;;;3.13;1.87;;;19.20;99.90;;;;;;5052116;28;20176;-89
2023/10/23 00:51:16;;;;;;;2.33;1.90;;;19.20;99.90;;;;;;5045851;28;20169;-89
2023/10/23 00:53:43;;;;;;;2.17;1.83;;;19.20;99.90;;;;;;5066914;28;20173;-88
2023/10/23 00:56:11;;;;;;;2.40;2.10;;;19.20;99.90;;;;;;5049597;28;20191;-89
2023/10/23 00:58:42;;;;;;;2.90;1.87;;;19.20;99.90;;;;;;5040513;28;20161;-89
2023/10/23 01:01:12;;;;;;;2.83;1.97;;;19.20;99.90;;;;;;5040082;28;20654;-89
2023/10/23 01:03:38;;;;;;;2.00;1.80;;;19.20;99.90;;;;;;5054795;28;20266;-88
2023/10/23 01:06:05;;;;;;;2.13;1.90;;;19.20;99.90;;;;;;5053106;28;20542;-89
2023/10/23 01:08:30;;;;;;;2.07;1.87;;;19.20;99.90;;;;;;5046221;28;20168;-88
2023/10/23 01:10:57;;;;;;;2.13;1.93;;;19.20;99.90;;;;;;5050038;28;20173;-89
2023/10/23 01:13:24;;;;;;;1.97;1.60;;;19.20;99.90;;;;;;5045634;28;20339;-89
2023/10/23 01:15:51;;;;;;;2.07;1.83;;;19.20;99.90;;;;;;5035639;28;20636;-89
2023/10/23 01:18:17;;;;;;;1.63;1.53;;;19.20;99.90;;;;;;5043020;28;20183;-89
2023/10/23 01:20:43;;;;;;;3.10;1.83;;;19.20;99.90;;;;;;5053089;28;20203;-89
2023/10/23 01:23:09;;;;;;;2.93;1.80;;;19.10;99.90;;;;;;5036667;28;20428;-89
2023/10/23 01:25:34;;;;;;;2.47;1.80;;;19.10;99.90;;;;;;5034128;28;20266;-90
2023/10/23 01:28:00;;;;;;;2.30;2.00;;;19.10;99.90;;;;;;5046168;28;20172;-90
2023/10/23 01:30:26;;;;;;;1.90;1.80;;;19.10;99.90;;;;;;5033651;28;20555;-89
2023/10/23 01:32:52;;;;;;;2.20;1.83;;;19.10;99.90;;;;;;5038437;28;20184;-89
2023/10/23 01:35:17;;;;;;;3.00;1.83;;;19.10;99.90;;;;;;5050670;28;20227;-89
2023/10/23 01:37:45;;;;;;;2.00;1.80;;;19.10;99.90;;;;;;5047256;28;20169;-89
2023/10/23 01:40:11;;;;;;;1.87;1.70;;;19.10;99.90;;;;;;5065753;28;20204;-89
2023/10/23 01:42:37;;;;;;;2.10;1.90;;;19.10;99.90;;;;;;5040322;28;20175;-90
2023/10/23 01:45:03;;;;;;;1.93;1.67;;;19.10;99.90;;;;;;5042821;28;20169;-90
2023/10/23 01:47:28;;;;;;;2.40;1.90;;;19.10;99.90;;;;;;5039379;28;20168;-89
2023/10/23 01:49:54;;;;;;;1.50;1.40;;;19.10;99.90;;;;;;5045937;28;20181;-89
2023/10/23 01:52:20;;;;;;;2.40;1.80;;;19.10;99.90;;;;;;5054372;28;20185;-89
2023/10/23 01:54:46;;;;;;;1.93;1.73;;;19.10;99.90;;;;;;5045201;28;20306;-90
2023/10/23 01:57:12;;;;;;;2.00;1.80;;;19.10;99.90;;;;;;5052570;28;20200;-89
2023/10/23 01:59:39;;;;;;;1.90;1.80;;;19.00;99.90;;;;;;5043910;28;20223;-89
2023/10/23 02:02:05;;;;;;;2.97;1.87;;;19.00;99.90;;;;;;5055728;28;20168;-90
2023/10/23 02:04:31;;;;;;;1.90;1.70;;;19.00;99.90;;;;;;5041111;28;20169;-89
2023/10/23 02:06:57;;;;;;;2.47;1.80;;;19.00;99.90;;;;;;5053380;28;20210;-89
2023/10/23 02:09:23;;;;;;;2.23;1.90;;;19.00;99.90;;;;;;5051720;28;20176;-89
2023/10/23 02:11:49;;;;;;;2.27;1.80;;;19.00;99.90;;;;;;5052507;28;20169;-89
2023/10/23 02:14:15;;;;;;;2.03;1.80;;;19.00;99.90;;;;;;5042531;28;20173;-90
2023/10/23 02:16:41;;;;;;;2.20;1.50;;;19.00;99.90;;;;;;5051201;28;20661;-90
2023/10/23 02:19:06;;;;;;;1.90;1.70;;;19.00;99.90;;;;;;5045782;28;20196;-89
2023/10/23 02:21:33;;;;;;;1.90;1.70;;;19.00;99.90;;;;;;5048808;28;20508;-89
2023/10/23 02:23:59;;;;;;;2.00;1.80;;;18.90;99.90;;;;;;5048466;28;20160;-89
2023/10/23 02:26:25;;;;;;;1.80;1.70;;;18.90;99.90;;;;;;5046751;28;20529;-89
2023/10/23 02:28:51;;;;;;;2.20;1.83;;;18.90;99.90;;;;;;5052020;28;20196;-90
2023/10/23 02:31:17;;;;;;;1.70;1.60;;;18.90;99.90;;;;;;5044887;28;20234;-89
2023/10/23 02:33:43;;;;;;;2.50;1.80;;;18.90;99.90;;;;;;5052831;28;20173;-89
2023/10/23 02:36:08;;;;;;;2.57;1.70;;;18.90;99.90;;;;;;5044096;28;20168;-89
2023/10/23 02:38:34;;;;;;;1.90;1.80;;;18.90;99.90;;;;;;5053367;28;20287;-90
2023/10/23 02:41:00;;;;;;;1.90;1.70;;;18.90;99.90;;;;;;5037848;28;20208;-90
2023/10/23 02:43:26;;;;;;;2.30;1.70;;;18.90;99.90;;;;;;5034517;28;20539;-90
2023/10/23 02:45:52;;;;;;;1.90;1.70;;;18.90;99.90;;;;;;5047045;28;20269;-89
2023/10/23 02:48:17;;;;;;;2.23;1.67;;;18.80;99.90;;;;;;5036167;28;20283;-89
2023/10/23 02:50:56;;;;;;;1.90;1.63;;;18.80;99.90;;;;;;5048453;28;20183;-89
2023/10/23 02:53:22;;;;;;;1.90;1.70;;;18.80;99.90;;;;;;5052086;28;20177;-89
2023/10/23 02:55:48;;;;;;;2.57;1.83;;;18.80;99.90;;;;;;5046618;28;20279;-90
2023/10/23 02:58:15;;;;;;;2.60;1.70;;;18.80;99.90;;;;;;5034634;28;20589;-89
2023/10/23 03:00:42;;;;;;;2.23;1.90;;;18.80;99.90;;;;;;5042656;28;20204;-89
2023/10/23 03:03:08;;;;;;;1.70;1.60;;;18.80;99.90;;;;;;5035646;28;20180;-89
2023/10/23 03:05:34;;;;;;;1.90;1.70;;;18.80;99.90;;;;;;5039808;28;20172;-89
2023/10/23 03:08:00;;;;;;;2.10;1.67;;;18.80;99.90;;;;;;5039147;28;20179;-89
2023/10/23 03:10:26;;;;;;;1.83;1.70;;;18.80;99.90;;;;;;5036663;28;20180;-89
2023/10/23 03:12:52;;;;;;;1.83;1.50;;;18.70;99.90;;;;;;5039975;28;20208;-89
2023/10/23 03:15:18;;;;;;;1.80;1.70;;;18.80;99.90;;;;;;5034222;28;20173;-89
2023/10/23 03:17:43;;;;;;;2.10;1.70;;;18.70;99.90;;;;;;5042501;28;20216;-89
2023/10/23 03:20:11;;;;;;;1.87;1.70;;;18.70;99.90;;;;;;5050470;28;20295;-89
2023/10/23 03:22:38;;;;;;;1.93;1.73;;;18.70;99.90;;;;;;5049951;28;20564;-89
2023/10/23 03:25:04;;;;;;;2.87;1.87;;;18.70;99.90;;;;;;5050926;28;20343;-89
2023/10/23 03:27:31;;;;;;;2.37;1.73;;;18.70;99.90;;;;;;5041040;28;20330;-89
2023/10/23 03:29:57;;;;;;;2.00;1.80;;;18.70;99.90;;;;;;5053201;28;20180;-90
2023/10/23 03:32:24;;;;;;;2.50;1.80;;;18.70;99.90;;;;;;5050402;28;20192;-89
2023/10/23 03:34:50;;;;;;;2.90;1.80;;;18.70;99.90;;;;;;5053774;28;20478;-90
2023/10/23 03:37:16;;;;;;;3.67;1.87;;;18.70;99.90;;;;;;5051309;28;20195;-90
2023/10/23 03:39:42;;;;;;;2.07;1.70;;;18.60;99.90;;;;;;5031927;28;20243;-90
2023/10/23 03:42:08;;;;;;;1.63;1.53;;;18.70;99.90;;;;;;5042440;28;20180;-90
2023/10/23 03:44:34;;;;;;;1.60;1.50;;;18.70;99.90;;;;;;5033863;28;20173;-90
2023/10/23 03:47:00;;;;;;;1.80;1.70;;;18.60;99.90;;;;;;5036804;28;20444;-88
2023/10/23 03:49:28;;;;;;;2.60;2.03;;;18.60;99.90;;;;;;5034901;28;20543;-88
2023/10/23 03:51:54;;;;;;;1.70;1.60;;;18.60;99.90;;;;;;5035093;28;20207;-88
2023/10/23 03:54:19;;;;;;;1.87;1.50;;;18.60;99.90;;;;;;5037835;28;20311;-88
2023/10/23 03:56:45;;;;;;;2.03;1.63;;;18.60;99.90;;;;;;5030018;28;20339;-90
2023/10/23 03:59:11;;;;;;;1.63;1.53;;;18.60;99.90;;;;;;5058892;28;20439;-90
2023/10/23 04:01:36;;;;;;;1.70;1.60;;;18.60;99.90;;;;;;5053268;28;20173;-88
2023/10/23 04:04:02;;;;;;;1.67;1.53;;;18.60;99.90;;;;;;5042418;28;20176;-88
2023/10/23 04:06:28;;;;;;;1.70;1.53;;;18.60;99.90;;;;;;5053407;28;20249;-89
2023/10/23 04:08:54;;;;;;;1.60;1.50;;;18.50;99.90;;;;;;5043027;28;20176;-89
2023/10/23 04:11:19;;;;;;;1.67;1.50;;;18.50;99.90;;;;;;5053899;28;20180;-89
2023/10/23 04:13:45;;;;;;;2.27;1.70;;;18.50;99.90;;;;;;5040527;28;20271;-88
2023/10/23 04:16:12;;;;;;;2.17;1.87;;;18.50;99.90;;;;;;5053885;28;20173;-88
2023/10/23 04:18:37;;;;;;;1.80;1.70;;;18.50;99.90;;;;;;5043979;28;20169;-88
2023/10/23 04:21:09;;;;;;;1.90;1.70;;;18.50;99.90;;;;;;5033930;28;20220;-88
2023/10/23 04:23:36;;;;;;;1.87;1.60;;;18.50;99.90;;;;;;5043338;28;20408;-89
2023/10/23 04:26:03;;;;;;;1.90;1.60;;;18.50;99.90;;;;;;5034887;28;20177;-88
2023/10/23 04:28:31;;;;;;;1.67;1.57;;;18.50;99.90;;;;;;5041295;28;20238;-88
2023/10/23 04:30:56;;;;;;;2.37;1.73;;;18.50;99.90;;;;;;5035741;28;20509;-88
2023/10/23 04:33:23;;;;;;;1.80;1.70;;;18.40;99.90;;;;;;5036877;28;20180;-89
2023/10/23 04:35:53;;;;;;;1.73;1.60;;;18.40;99.90;;;;;;5037099;28;20185;-89
2023/10/23 04:38:19;;;;;;;2.20;1.60;;;18.40;99.90;;;;;;5034630;28;20197;-88
2023/10/23 04:40:45;;;;;;;2.33;1.70;;;18.40;99.90;;;;;;5037661;28;20232;-88
2023/10/23 04:43:11;;;;;;;3.03;1.70;;;18.40;99.90;;;;;;5033691;28;20203;-89
2023/10/23 04:45:37;;;;;;;2.30;1.80;;;18.40;99.90;;;;;;5043784;28;20566;-88
2023/10/23 04:48:04;;;;;;;3.20;1.70;;;18.40;99.90;;;;;;5052135;28;20589;-88
2023/10/23 04:50:34;;;;;;;1.77;1.67;;;18.40;99.90;;;;;;5040844;28;20190;-88
2023/10/23 04:53:00;;;;;;;1.67;1.57;;;18.40;99.90;;;;;;5049719;28;20400;-88
2023/10/23 04:55:26;;;;;;;2.37;1.70;;;18.40;99.90;;;;;;5039380;28;20516;-88
2023/10/23 04:57:52;;;;;;;1.80;1.70;;;18.40;99.90;;;;;;5049080;28;20183;-88
2023/10/23 05:00:21;;;;;;;2.00;1.70;;;18.30;99.90;;;;;;5038912;28;20225;-89
2023/10/23 05:02:47;;;;;;;1.80;1.57;;;18.30;99.90;;;;;;5051620;28;20391;-88
2023/10/23 05:05:13;;;;;;;1.80;1.50;;;18.30;99.90;;;;;;5047478;28;20172;-88
2023/10/23 05:07:38;;;;;;;1.93;1.70;;;18.30;99.90;;;;;;5029037;28;20626;-90
2023/10/23 05:10:07;;;;;;;1.87;1.60;;;18.30;99.90;;;;;;5060157;28;20176;-89
2023/10/23 05:12:33;;;;;;;2.73;1.50;;;18.30;99.90;;;;;;5032363;28;20474;-88
2023/10/23 05:14:58;;;;;;;1.60;1.50;;;18.30;99.90;;;;;;5033562;28;20311;-88
2023/10/23 05:17:24;;;;;;;1.73;1.57;;;18.30;99.90;;;;;;5044217;28;20657;-88
2023/10/23 05:19:50;;;;;;;2.27;1.63;;;18.30;99.90;;;;;;5042500;28;20197;-88
2023/10/23 05:22:16;;;;;;;5.83;1.63;;;18.30;99.90;;;;;;5041500;28;20439;-90
2023/10/23 05:24:46;;;;;;;2.97;1.67;;;18.30;99.90;;;;;;5045113;28;20546;-90
2023/10/23 05:27:12;;;;;;;3.77;1.60;;;18.30;99.90;;;;;;5027769;28;20174;-90
2023/10/23 05:29:37;;;;;;;4.53;2.00;;;18.20;99.90;;;;;;5027030;28;20165;-88
2023/10/23 05:32:03;;;;;;;2.67;1.80;;;18.30;99.90;;;;;;5038250;28;20180;-88
2023/10/23 05:34:29;;;;;;;2.63;1.87;;;18.20;99.90;;;;;;5028869;28;20187;-88
2023/10/23 05:36:55;;;;;;;3.50;2.30;;;18.20;99.90;;;;;;5042802;28;20180;-88
2023/10/23 05:39:21;;;;;;;5.73;2.20;;;18.20;99.90;;;;;;5045249;28;20847;-88
2023/10/23 05:41:46;;;;;;;3.07;2.00;;;18.20;99.90;;;;;;5028816;28;20171;-88
2023/10/23 05:44:12;;;;;;;3.90;2.17;;;18.20;99.90;;;;;;5039383;28;20176;-89
2023/10/23 05:46:37;;;;;;;6.13;2.07;;;18.20;99.90;;;;;;5027234;28;20177;-89
2023/10/23 05:49:03;;;;;;;5.10;2.20;;;18.20;99.90;;;;;;5042467;28;20175;-88
2023/10/23 05:51:28;;;;;;;3.23;1.93;;;18.20;99.90;;;;;;5031955;28;20245;-88
2023/10/23 05:53:56;;;;;;;3.50;2.20;;;18.20;99.90;;;;;;5021300;28;20267;-89
2023/10/23 05:56:22;;;;;;;3.10;1.77;;;18.10;99.90;;;;;;5030775;28;20172;-89
2023/10/23 05:58:48;;;;;;;3.37;2.07;;;18.20;99.90;;;;;;5025840;28;20181;-87
2023/10/23 06:01:14;;;;;;;8.27;2.37;;;18.20;99.90;;;;;;5039555;28;20200;-87
2023/10/23 06:03:40;;;;;;;4.30;1.90;;;18.10;99.90;;;;;;5035465;28;20178;-89
2023/10/23 06:06:06;;;;;;;2.47;2.27;;;18.10;99.90;;;;;;5039896;28;20415;-89
2023/10/23 06:08:31;;;;;;;2.83;2.37;;;18.10;99.90;;;;;;5032334;28;20172;-89
2023/10/23 06:10:57;;;;;;;2.40;1.87;;;18.10;99.90;;;;;;5040275;28;20200;-89
2023/10/23 06:13:23;;;;;;;4.30;2.50;;;18.10;99.90;;;;;;5032091;28;20271;-89
2023/10/23 06:15:49;;;;;;;2.83;2.43;;;18.10;99.90;;;;;;5042560;28;20198;-89
2023/10/23 06:18:14;;;;;;;3.87;2.10;;;18.10;99.90;;;;;;5034173;28;20176;-89
2023/10/23 06:20:40;;;;;;;3.90;2.37;;;18.10;99.90;;;;;;5044112;28;20211;-88
2023/10/23 06:23:06;;;;;;;2.87;2.40;;;18.10;99.90;;;;;;5029190;28;20187;-87
2023/10/23 06:25:32;;;;;;;4.27;2.40;;;18.00;99.90;;;;;;5042872;28;20168;-87
2023/10/23 06:27:58;;;;;;;3.17;2.37;;;18.10;99.90;;;;;;5030014;28;20608;-88
2023/10/23 06:30:24;;;;;;;3.97;2.70;;;18.10;99.90;;;;;;5019179;28;20344;-89
2023/10/23 06:32:50;;;;;;;4.07;2.77;;;18.00;99.90;;;;;;5030792;28;20266;-88
2023/10/23 06:35:16;;;;;;;3.43;2.60;;;18.10;99.90;;;;;;5025368;28;20442;-88
2023/10/23 06:37:42;;;;;;;3.53;2.67;;;18.00;99.90;;;;;;5027992;28;20183;-89
2023/10/23 06:40:09;;;;;;;5.90;2.50;;;18.10;99.90;;;;;;5025694;28;20193;-89
2023/10/23 06:42:34;;;;;;;4.07;2.80;;;18.00;99.90;;;;;;5036250;28;20200;-89
2023/10/23 06:45:00;;;;;;;5.73;2.93;;;18.00;99.90;;;;;;5036873;28;20602;-89
2023/10/23 06:47:27;;;;;;;4.40;2.90;;;18.00;99.90;;;;;;5042701;28;20176;-89
2023/10/23 06:49:54;;;;;;;7.17;3.17;;;18.00;99.90;;;;;;5035441;28;20456;-89
2023/10/23 06:52:20;;;;;;;5.47;3.13;;;18.00;99.90;;;;;;5043503;28;20228;-88
2023/10/23 06:54:45;;;;;;;4.73;3.00;;;18.00;99.90;;;;;;5044686;28;20180;-88
2023/10/23 06:57:11;;;;;;;5.00;3.33;;;18.00;99.90;;;;;;5044277;28;20330;-88
2023/10/23 06:59:37;;;;;;;4.57;3.37;;;18.00;99.90;;;;;;5032986;28;20489;-88
2023/10/23 07:02:03;;;;;;;5.43;3.30;;;18.00;99.90;;;;;;5050695;28;20379;-87
2023/10/23 07:04:30;;;;;;;5.80;3.57;;;18.00;99.90;;;;;;5039040;28;20258;-88
2023/10/23 07:06:56;;;;;;;4.27;3.30;;;18.00;99.90;;;;;;5023561;28;20181;-88
2023/10/23 07:09:22;;;;;;;5.97;4.00;;;18.00;99.90;;;;;;5038328;28;20419;-88
2023/10/23 07:11:51;;;;;;;6.20;3.90;;;18.00;99.90;;;;;;5024218;28;20695;-87
2023/10/23 07:14:17;;;;;;;6.23;3.93;;;18.00;99.90;;;;;;5034432;28;20207;-88
2023/10/23 07:16:42;;;;;;;5.00;3.93;;;18.10;99.90;;;;;;5025514;28;20168;-88
2023/10/23 07:19:10;;;;;;;6.57;4.10;;;18.10;99.90;;;;;;5030715;28;20411;-87
2023/10/23 07:21:39;;;;;;;6.13;4.07;;;18.10;99.90;;;;;;5026248;28;20179;-88
2023/10/23 07:24:05;;;;;;;7.50;4.40;;;18.10;99.90;;;;;;5027693;28;20238;-88
2023/10/23 07:26:31;;;;;;;4.93;3.83;;;18.10;99.90;;;;;;5027115;28;20579;-88
2023/10/23 07:28:57;;;;;;;5.40;3.80;;;18.20;99.90;;;;;;5021950;28;20250;-87
2023/10/23 07:31:22;;;;;;;4.17;3.50;;;18.20;99.90;;;;;;5030085;28;20291;-87
2023/10/23 07:33:50;;;;;;;4.77;3.93;;;18.20;99.90;;;;;;5029461;28;20255;-87
2023/10/23 07:36:16;;;;;;;5.03;3.60;;;18.30;99.90;;;;;;5036760;28;20172;-87
2023/10/23 07:38:43;;;;;;;6.73;3.60;;;18.30;99.90;;;;;;5045353;28;20191;-87
2023/10/23 07:41:09;;;;;;;5.90;3.90;;;18.30;99.90;;;;;;5028022;28;20223;-88
2023/10/23 07:43:35;;;;;;;5.47;4.10;;;18.40;99.90;;;;;;5029511;28;20264;-88
2023/10/23 07:46:06;;;;;;;5.30;3.43;;;18.40;99.90;;;;;;5039864;28;20796;-88
2023/10/23 07:48:31;;;;;;;5.87;3.43;;;18.40;99.90;;;;;;5026633;28;20181;-88
2023/10/23 07:50:58;;;;;;;4.03;3.63;;;18.40;99.90;;;;;;5039956;28;20476;-88
2023/10/23 07:53:24;;;;;;;5.27;3.30;;;18.50;99.90;;;;;;5027144;28;20188;-88
2023/10/23 07:55:50;;;;;;;5.90;3.53;;;18.50;99.90;;;;;;5039616;28;20318;-87
2023/10/23 07:58:17;;;;;;;6.30;3.73;;;18.50;99.90;;;;;;5025140;28;20900;-88
2023/10/23 08:00:43;;;;;;;4.53;3.70;;;18.50;99.90;;;;;;5038560;28;20218;-88
2023/10/23 08:03:09;;;;;;;3.90;3.40;;;18.60;99.90;;;;;;5030048;28;20619;-88
2023/10/23 08:05:35;;;;;;;3.63;3.30;;;18.60;99.90;;;;;;5034910;28;20173;-88
2023/10/23 08:08:01;;;;;;;4.87;3.50;;;18.60;99.90;;;;;;5032508;28;20234;-88
2023/10/23 08:10:27;;;;;;;6.90;3.50;;;18.60;99.90;;;;;;5031337;28;20203;-88
2023/10/23 08:12:53;;;;;;;4.23;3.20;;;18.60;99.90;;;;;;5033224;28;20208;-88
2023/10/23 08:15:18;;;;;;;4.50;3.57;;;18.70;99.90;;;;;;5027969;28;20217;-88
2023/10/23 08:17:44;;;;;;;4.27;3.23;;;18.70;99.90;;;;;;5034869;28;20176;-88
2023/10/23 08:20:10;;;;;;;6.30;3.73;;;18.70;99.90;;;;;;5027682;28;20265;-88
2023/10/23 08:22:36;;;;;;;3.83;3.13;;;18.70;99.90;;;;;;5037458;28;20165;-88
2023/10/23 08:25:04;;;;;;;4.57;3.20;;;18.70;99.90;;;;;;5024687;28;20177;-88
2023/10/23 08:27:30;;;;;;;4.33;3.33;;;18.70;99.90;;;;;;5035020;28;20232;-88
2023/10/23 08:29:56;;;;;;;3.93;3.33;;;18.70;99.90;;;;;;5025063;28;20433;-88
2023/10/23 08:32:22;;;;;;;6.10;3.27;;;18.80;99.90;;;;;;5038855;28;20194;-88
2023/10/23 08:34:47;;;;;;;4.13;3.13;;;18.80;99.90;;;;;;5043277;28;20185;-88
2023/10/23 08:37:13;;;;;;;5.57;3.40;;;18.80;99.90;;;;;;5053682;28;20203;-88
2023/10/23 08:39:39;;;;;;;4.57;3.23;;;18.80;99.90;;;;;;5045541;28;20440;-88
2023/10/23 08:42:05;;;;;;;5.97;3.53;;;18.80;99.90;;;;;;5036621;28;20631;-89
2023/10/23 08:44:31;;;;;;;4.40;3.10;;;18.80;99.90;;;;;;5026398;28;20205;-88
2023/10/23 08:46:57;;;;;;;5.07;3.30;;;18.80;99.90;;;;;;5029523;28;20168;-88
2023/10/23 08:49:23;;;;;;;4.00;3.30;;;18.80;99.90;;;;;;5044777;28;20624;-88
2023/10/23 08:51:52;;;;;;;5.70;3.37;;;18.80;99.90;;;;;;5038548;28;20165;-88
2023/10/23 08:54:20;;;;;;;5.33;3.13;;;18.80;99.90;;;;;;5035978;28;20172;-89
2023/10/23 08:57:05;;;;;;;3.93;3.03;;;18.80;99.90;;;;;;5040498;28;20566;-89
2023/10/23 08:59:31;;;;;;;3.23;2.80;;;18.80;99.90;;;;;;5035517;28;20371;-89
2023/10/23 09:01:56;;;;;;;5.80;3.33;;;18.80;99.90;;;;;;5038515;28;20412;-87
2023/10/23 09:04:22;;;;;;;5.80;3.20;;;18.80;99.80;;;;;;5034237;28;20165;-87
2023/10/23 09:06:48;;;;;;;3.83;3.13;;;18.80;99.80;;;;;;5029214;28;20168;-87
2023/10/23 09:09:15;;;;;;;4.27;3.10;;;18.80;99.80;;;;;;5034127;28;20173;-87
2023/10/23 09:11:45;;;;;;;3.83;3.20;;;18.80;99.80;;;;;;5040564;28;20180;-87
2023/10/23 09:14:20;;;;;;;3.87;3.00;;;18.80;99.80;;;;;;5032260;28;20161;-87
2023/10/23 09:16:46;;;;;;;3.70;3.20;;;18.80;99.80;;;;;;5043832;28;20488;-88
2023/10/23 09:19:34;;;;;;;4.93;3.10;;;18.80;99.80;;;;;;5035342;28;20488;-88
2023/10/23 09:22:00;;;;;;;4.13;3.13;;;18.80;99.80;;;;;;5025458;28;20558;-89
2023/10/23 09:24:26;;;;;;;3.87;2.87;;;18.80;99.80;;;;;;5033817;28;20175;-88
2023/10/23 09:26:52;;;;;;;5.00;3.27;;;18.80;99.80;;;;;;5023093;28;20199;-88
2023/10/23 09:29:22;;;;;;;4.07;2.90;;;18.90;99.80;;;;;;5036950;28;20654;-88
2023/10/23 09:31:49;;;;;;;3.43;3.13;;;18.90;99.70;;;;;;5024659;28;20179;-89
2023/10/23 09:34:18;;;;;;;4.63;3.20;;;18.90;99.70;;;;;;5037961;28;20381;-88
2023/10/23 09:36:45;;;;;;;4.97;3.10;;;18.90;99.70;;;;;;5023987;28;20172;-89
2023/10/23 09:39:11;;;;;;;4.27;2.93;;;18.90;99.60;;;;;;5052354;28;20319;-88
2023/10/23 09:41:37;;;;;;;5.60;3.10;;;18.90;99.60;;;;;;5039979;28;20179;-88
2023/10/23 09:44:04;;;;;;;5.77;3.17;;;18.90;99.60;;;;;;5035928;28;20177;-88
2023/10/23 09:46:31;;;;;;;2.70;2.50;;;18.90;99.80;;;;;;5039295;28;20164;-88
2023/10/23 09:49:03;;;;;;;3.17;2.80;;;18.90;99.50;;;;;;5039718;28;20172;-88
2023/10/23 09:51:39;;;;;;;3.63;2.80;;;19.00;99.50;;;;;;5028869;28;20177;-88
2023/10/23 09:54:21;;;;;;;3.37;2.60;;;19.00;99.50;;;;;;5025261;28;20215;-88
2023/10/23 09:56:49;;;;;;;3.90;3.17;;;19.00;99.50;;;;;;5038450;28;20320;-88
2023/10/23 09:59:29;;;;;;;4.23;2.90;;;19.00;99.40;;;;;;5037835;28;20227;-89
2023/10/23 10:01:59;;;;;;;3.10;2.70;;;19.00;99.40;;;;;;5026994;28;20203;-88
2023/10/23 10:05:04;;;;;;;2.87;2.50;;;19.00;99.40;;;;;;5027399;28;20165;-88
2023/10/23 10:07:44;;;;;;;4.30;2.83;;;19.00;99.40;;;;;;4993246;28;20584;-88
2023/10/23 10:10:10;;;;;;;3.13;2.80;;;19.00;99.40;;;;;;5029725;28;20233;-88
2023/10/23 10:12:38;;;;;;;4.07;2.30;;;19.00;99.40;;;;;;5025486;28;20177;-88
2023/10/23 10:15:11;;;;;;;3.57;2.70;;;19.00;99.40;;;;;;5033485;28;20343;-88
2023/10/23 10:17:39;;;;;;;2.90;2.60;;;19.00;99.40;;;;;;5026453;28;20260;-88
2023/10/23 10:20:08;;;;;;;3.07;2.30;;;19.00;99.40;;;;;;5033202;28;20285;-88
2023/10/23 10:22:39;;;;;;;3.93;2.60;;;19.00;99.40;;;;;;5048125;28;20156;-88
2023/10/23 10:25:07;;;;;;;3.33;2.60;;;19.00;99.40;;;;;;5037704;28;20622;-88
2023/10/23 10:27:34;;;;;;;3.33;2.60;;;19.00;99.40;;;;;;5040862;28;20179;-88
2023/10/23 10:30:05;;;;;;;3.30;2.40;;;19.00;99.40;;;;;;5042677;28;20185;-88
2023/10/23 10:32:33;;;;;;;3.60;2.30;;;19.00;99.40;;;;;;5035829;28;20204;-88
2023/10/23 10:35:03;;;;;;;2.97;2.13;;;19.00;99.40;;;;;;5051004;28;20180;-88
2023/10/23 10:37:30;;;;;;;2.50;2.30;;;19.00;99.40;;;;;;5036516;28;20203;-88
2023/10/23 10:39:56;;;;;;;3.03;2.40;;;19.00;99.40;;;;;;5042976;28;20739;-88
2023/10/23 10:42:23;;;;;;;3.47;2.37;;;19.00;99.40;;;;;;5034290;28;20175;-88
2023/10/23 10:45:10;;;;;;;3.50;2.50;;;19.00;99.50;;;;;;5024106;28;20592;-88
2023/10/23 10:47:41;;;;;;;3.50;2.50;;;19.10;99.50;;;;;;5034470;28;20161;-88
2023/10/23 10:50:07;;;;;;;2.60;2.30;;;19.10;99.50;;;;;;5022670;28;20680;-89
2023/10/23 10:52:37;;;;;;;2.97;2.53;;;19.10;99.50;;;;;;5032455;28;20448;-88
2023/10/23 10:55:10;;;;;;;2.60;2.40;;;19.10;99.50;;;;;;5021228;28;20590;-88
2023/10/23 10:57:54;;;;;;;3.07;2.17;;;19.10;99.50;;;;;;5028991;28;20272;-89
2023/10/23 11:00:22;;;;;;;2.83;2.20;;;19.10;99.50;;;;;;5002860;28;20219;-88
2023/10/23 11:02:48;;;;;;;2.50;2.27;;;19.10;99.40;;;;;;5029080;28;20662;-88
2023/10/23 11:05:14;;;;;;;3.67;2.00;;;19.10;99.40;;;;;;5042365;28;20330;-88
2023/10/23 11:07:40;;;;;;;3.73;2.60;;;19.10;99.70;;;;;;5028607;28;20321;-88
2023/10/23 11:10:06;;;;;;;4.20;2.37;;;19.00;99.50;;;;;;5042650;28;20290;-88
2023/10/23 11:12:33;;;;;;;3.13;2.53;;;19.10;99.50;;;;;;5029795;28;20173;-88
2023/10/23 11:14:59;;;;;;;4.07;2.30;;;19.10;99.50;;;;;;5041095;28;20165;-88
2023/10/23 11:17:24;;;;;;;3.30;2.23;;;19.00;99.50;;;;;;5030514;28;20432;-88
2023/10/23 11:19:50;;;;;;;3.43;2.30;;;19.10;99.60;;;;;;5040017;28;20330;-88
2023/10/23 11:22:23;;;;;;;2.50;2.30;;;19.10;99.60;;;;;;5030432;28;20675;-88
2023/10/23 11:24:49;;;;;;;3.03;2.23;;;19.10;99.60;;;;;;5037206;28;20160;-88
2023/10/23 11:27:15;;;;;;;4.17;2.40;;;19.10;99.50;;;;;;5035896;28;20164;-88
2023/10/23 11:29:46;;;;;;;3.40;2.53;;;19.10;99.60;;;;;;5025771;28;20227;-88
2023/10/23 11:32:14;;;;;;;2.20;2.00;;;19.10;99.50;;;;;;5026971;28;20169;-88
2023/10/23 11:34:39;;;;;;;2.73;2.37;;;19.10;99.60;;;;;;5031292;28;20177;-88
2023/10/23 11:37:07;;;;;;;3.33;2.20;;;19.10;99.60;;;;;;5024410;28;20165;-88
2023/10/23 11:39:35;;;;;;;2.60;2.13;;;19.10;99.60;;;;;;5029781;28;20661;-88
2023/10/23 11:42:01;;;;;;;3.13;2.27;;;19.10;99.60;;;;;;5036102;28;20415;-88
2023/10/23 11:44:27;;;;;;;2.53;2.33;;;19.10;99.60;;;;;;5028824;28;20168;-88
2023/10/23 11:46:55;;;;;;;2.90;2.23;;;19.10;99.60;;;;;;5040943;28;20324;-88
2023/10/23 11:49:24;;;;;;;2.70;2.17;;;19.10;99.60;;;;;;5035989;28;20272;-88
2023/10/23 11:51:51;;;;;;;2.70;2.07;;;19.10;99.60;;;;;;5024116;28;20169;-88
2023/10/23 11:54:17;;;;;;;3.33;2.50;;;19.10;99.70;;;;;;5028407;28;20172;-88
2023/10/23 11:56:43;;;;;;;2.90;2.20;;;19.10;99.70;;;;;;5043287;28;20168;-88
2023/10/23 11:59:18;;;;;;;2.60;2.40;;;19.10;99.70;;;;;;5030253;28;20195;-88
2023/10/23 12:01:44;;;;;;;2.70;2.10;;;19.10;99.70;;;;;;5041305;28;20447;-88
2023/10/23 12:04:10;;;;;;;3.10;2.33;;;19.10;99.80;;;;;;5028973;28;20200;-88
2023/10/23 12:06:37;;;;;;;2.50;2.20;;;19.10;99.80;;;;;;5040749;28;20664;-88
2023/10/23 12:09:04;;;;;;;2.67;2.10;;;19.10;99.80;;;;;;5027779;28;20178;-88
2023/10/23 12:11:31;;;;;;;3.87;2.40;;;19.10;99.80;;;;;;5033974;28;20553;-88
2023/10/23 12:13:59;;;;;;;2.80;2.00;;;19.10;99.80;;;;;;5030629;28;20195;-88
2023/10/23 12:16:28;;;;;;;3.37;2.20;;;19.10;99.90;;;;;;5036012;28;20183;-88
2023/10/23 12:18:54;;;;;;;2.40;2.00;;;19.10;99.90;;;;;;5038442;28;20169;-88
2023/10/23 12:21:20;;;;;;;2.60;1.80;;;19.00;99.90;;;;;;5029266;28;20201;-88
2023/10/23 12:23:46;;;;;;;2.43;1.90;;;19.10;99.90;;;;;;5026141;28;20502;-88
2023/10/23 12:26:12;;;;;;;2.37;1.97;;;19.10;99.90;;;;;;5032603;28;20306;-88
2023/10/23 12:28:38;;;;;;;2.73;2.20;;;19.10;99.90;;;;;;5025617;28;20173;-88
2023/10/23 12:31:04;;;;;;;2.30;1.83;;;19.10;99.90;;;;;;5031461;28;20183;-88
2023/10/23 12:33:30;;;;;;;2.67;1.90;;;19.10;99.90;;;;;;5042254;28;20168;-88
2023/10/23 12:35:57;;;;;;;2.57;1.90;;;19.10;99.90;;;;;;5026336;28;20185;-88
2023/10/23 12:38:22;;;;;;;2.20;1.67;;;19.10;99.90;;;;;;5025180;28;20231;-88
2023/10/23 12:40:49;;;;;;;3.07;2.00;;;19.00;99.90;;;;;;5033895;28;20351;-88
2023/10/23 12:43:14;;;;;;;2.03;1.83;;;19.10;99.90;;;;;;5024601;28;20436;-88
2023/10/23 12:45:42;;;;;;;2.43;1.90;;;19.10;99.90;;;;;;5030131;28;20288;-88